createdAt,value
2023-03-17T00:02:11.300Z,100014.81
2023-03-17T00:04:41.679Z,100013.91
2023-03-17T00:07:13.273Z,100006.91
2023-03-17T00:09:42.021Z,100014.81
2023-03-17T00:12:11.636Z,100017.41
2023-03-17T00:14:46.972Z,100012.19
2023-03-17T00:17:15.765Z,100017.47
2023-03-17T00:19:45.681Z,100020.09
2023-03-17T00:22:18.800Z,100013.09
2023-03-17T00:24:47.143Z,100013.97
2023-03-17T00:27:16.248Z,100013.91
2023-03-17T00:29:44.603Z,100005.13
2023-03-17T00:32:18.292Z,100003.41
2023-03-17T00:34:48.477Z,100008.69
2023-03-17T00:37:17.451Z,100007.81
2023-03-17T00:39:46.308Z,100008.66
2023-03-17T00:42:15.481Z,99999.94
2023-03-17T00:44:43.663Z,100008.69
2023-03-17T00:47:13.091Z,100005.19
2023-03-17T00:49:41.869Z,100002.63
2023-03-17T00:52:13.098Z,100000.00
2023-03-17T00:54:43.938Z,99995.59
2023-03-17T00:57:12.703Z,99993.88
2023-03-17T00:59:43.279Z,99991.22
2023-03-17T01:02:14.604Z,99995.59
2023-03-17T01:04:47.838Z,99977.09
2023-03-17T01:07:24.245Z,99979.75
2023-03-17T01:09:55.052Z,99976.25
2023-03-17T01:12:24.835Z,99981.53
2023-03-17T01:14:53.014Z,99979.75
2023-03-17T01:17:22.090Z,99971.84
2023-03-17T01:19:52.778Z,99968.28
2023-03-17T01:22:22.589Z,99967.38
2023-03-17T01:24:51.491Z,99969.97
2023-03-17T01:27:19.641Z,99958.53
2023-03-17T01:29:47.946Z,99953.28
2023-03-17T01:32:18.640Z,99951.50
2023-03-17T01:34:47.511Z,99959.44
2023-03-17T01:37:16.031Z,99955.00
2023-03-17T01:39:45.624Z,99948.84
2023-03-17T01:42:17.602Z,99946.22
2023-03-17T01:44:59.823Z,99941.78
2023-03-17T01:47:32.007Z,99942.66
2023-03-17T01:50:05.400Z,99937.41
2023-03-17T01:52:35.944Z,99935.66
2023-03-17T01:55:10.334Z,99935.69
2023-03-17T01:57:45.038Z,99933.91
2023-03-17T02:00:18.018Z,99927.72
2023-03-17T02:02:48.858Z,99930.34
2023-03-17T02:05:21.146Z,99914.53
2023-03-17T02:07:49.926Z,99923.31
2023-03-17T02:10:21.772Z,99925.13
2023-03-17T02:12:54.578Z,99933.09
2023-03-17T02:15:25.449Z,99936.63
2023-03-17T02:17:54.254Z,99932.22
2023-03-17T02:21:15.552Z,99931.41
2023-03-17T02:23:45.215Z,99928.78
2023-03-17T02:26:15.967Z,99928.81
2023-03-17T02:28:46.097Z,99918.34
2023-03-17T02:31:15.611Z,99918.34
2023-03-17T02:33:45.321Z,99917.44
2023-03-17T02:36:13.839Z,99920.13
2023-03-17T02:38:49.625Z,99914.94
2023-03-17T02:41:20.268Z,99914.09
2023-03-17T02:43:48.739Z,99915.94
2023-03-17T02:46:17.444Z,99912.50
2023-03-17T02:48:50.952Z,99910.84
2023-03-17T02:51:21.266Z,99899.50
2023-03-17T02:53:51.259Z,99892.50
2023-03-17T02:56:20.060Z,99897.75
2023-03-17T03:01:36.313Z,99896.13
2023-03-17T03:04:04.673Z,99904.03
2023-03-17T03:06:32.752Z,99912.84
2023-03-17T03:09:02.356Z,99912.88
2023-03-17T03:11:31.139Z,99918.16
2023-03-17T03:13:59.286Z,99906.78
2023-03-17T03:16:27.415Z,99916.44
2023-03-17T03:18:55.530Z,99920.84
2023-03-17T03:21:23.780Z,99920.88
2023-03-17T03:23:52.143Z,99915.63
2023-03-17T03:26:21.961Z,99907.78
2023-03-17T03:28:53.863Z,99902.50
2023-03-17T03:31:22.743Z,99897.22
2023-03-17T03:33:51.606Z,99892.84
2023-03-17T03:36:19.672Z,99896.38
2023-03-17T03:38:48.084Z,99905.16
2023-03-17T03:41:16.446Z,99889.47
2023-03-17T03:45:43.893Z,99906.97
2023-03-17T03:48:15.195Z,99907.00
2023-03-17T03:50:43.560Z,99903.50
2023-03-17T03:53:11.745Z,99902.63
2023-03-17T03:55:43.008Z,99898.25
2023-03-17T03:58:11.564Z,99899.13
2023-03-17T04:00:39.912Z,99899.13
2023-03-17T04:03:12.420Z,99904.38
2023-03-17T04:05:41.035Z,99904.41
2023-03-17T04:08:12.249Z,99901.78
2023-03-17T04:10:40.669Z,99904.41
2023-03-17T04:13:09.844Z,99899.16
2023-03-17T04:15:38.090Z,99896.53
2023-03-17T04:18:06.626Z,99891.28
2023-03-17T04:20:36.181Z,99887.78
2023-03-17T04:23:04.528Z,99893.00
2023-03-17T04:25:33.268Z,99893.91
2023-03-17T04:28:01.854Z,99887.75
2023-03-17T04:30:34.714Z,99893.03
2023-03-17T04:33:03.110Z,99888.66
2023-03-17T04:35:31.443Z,99890.44
2023-03-17T04:38:03.565Z,99895.66
2023-03-17T04:40:32.019Z,99896.53
2023-03-17T04:43:02.962Z,99904.41
2023-03-17T04:45:31.931Z,99904.44
2023-03-17T04:48:00.130Z,99895.66
2023-03-17T04:50:28.400Z,99893.06
2023-03-17T04:52:56.570Z,99898.28
2023-03-17T04:55:28.629Z,99904.41
2023-03-17T04:57:56.850Z,99902.66
2023-03-17T05:00:25.604Z,99917.50
2023-03-17T05:02:53.662Z,99914.88
2023-03-17T05:05:21.933Z,99919.28
2023-03-17T05:07:53.309Z,99921.88
2023-03-17T05:10:21.449Z,99911.38
2023-03-17T05:12:51.148Z,99922.75
2023-03-17T05:15:19.400Z,99931.50
2023-03-17T05:17:47.805Z,99937.63
2023-03-17T05:20:16.573Z,99932.38
2023-03-17T05:22:44.987Z,99919.22
2023-03-17T05:25:13.075Z,99928.00
2023-03-17T05:27:41.533Z,99929.75
2023-03-17T05:30:12.937Z,99937.63
2023-03-17T05:32:42.031Z,99942.88
2023-03-17T05:35:11.405Z,99937.66
2023-03-17T05:37:39.522Z,99935.91
2023-03-17T05:40:08.530Z,99935.94
2023-03-17T05:42:36.691Z,99937.69
2023-03-17T05:45:05.788Z,99937.69
2023-03-17T05:47:36.156Z,99945.56
2023-03-17T05:50:09.100Z,99946.44
2023-03-17T05:52:39.373Z,99950.78
2023-03-17T05:55:09.360Z,99951.66
2023-03-17T05:57:38.013Z,99947.31
2023-03-17T06:00:12.677Z,99938.53
2023-03-17T06:02:45.701Z,99946.44
2023-03-17T06:05:16.642Z,99941.19
2023-03-17T06:07:53.985Z,99935.94
2023-03-17T06:10:25.212Z,99930.66
2023-03-17T06:12:53.324Z,99922.75
2023-03-17T06:15:24.020Z,99923.59
2023-03-17T06:17:53.418Z,99927.06
2023-03-17T06:20:22.162Z,99919.16
2023-03-17T06:23:03.321Z,99928.75
2023-03-17T06:25:33.076Z,99923.41
2023-03-17T06:28:02.833Z,99925.06
2023-03-17T06:30:34.513Z,99926.69
2023-03-17T06:33:04.609Z,99935.31
2023-03-17T06:35:36.183Z,99936.03
2023-03-17T06:38:05.081Z,99939.28
2023-03-17T06:40:34.276Z,99947.88
2023-03-17T06:43:02.970Z,99929.03
2023-03-17T06:45:32.952Z,99937.25
2023-03-17T06:48:05.006Z,99933.56
2023-03-17T06:50:33.119Z,99942.94
2023-03-17T06:53:03.718Z,99942.38
2023-03-17T06:55:33.379Z,99955.47
2023-03-17T06:58:04.224Z,99957.47
2023-03-17T07:00:33.069Z,99947.66
2023-03-17T07:03:02.986Z,99955.13
2023-03-17T07:05:33.499Z,99934.28
2023-03-17T07:08:01.913Z,99940.59
2023-03-17T07:10:30.453Z,99936.31
2023-03-17T07:13:02.360Z,99936.47
2023-03-17T07:15:34.503Z,99941.31
2023-03-17T07:18:02.994Z,99939.44
2023-03-17T07:20:32.835Z,99944.34
2023-03-17T07:23:01.526Z,99948.53
2023-03-17T07:25:30.223Z,99940.78
2023-03-17T07:28:01.175Z,99933.75
2023-03-17T07:30:31.939Z,99944.16
2023-03-17T07:33:00.094Z,99937.16
2023-03-17T07:38:21.081Z,99939.28
2023-03-17T07:40:53.100Z,99941.56
2023-03-17T07:43:21.908Z,99949.78
2023-03-17T07:45:50.431Z,99959.47
2023-03-17T07:48:19.857Z,99959.22
2023-03-17T07:50:49.745Z,99950.63
2023-03-17T07:53:18.623Z,99954.97
2023-03-17T07:55:47.522Z,99950.00
2023-03-17T07:58:18.268Z,99943.97
2023-03-17T08:00:46.736Z,99942.16
2023-03-17T08:03:14.925Z,99921.84
2023-03-17T08:06:03.864Z,99919.97
2023-03-17T08:08:32.507Z,99936.56
2023-03-17T08:11:03.660Z,99939.56
2023-03-17T08:13:32.190Z,99939.81
2023-03-17T08:16:02.506Z,99930.06
2023-03-17T08:18:31.051Z,99939.72
2023-03-17T08:20:59.234Z,99927.53
2023-03-17T08:23:29.190Z,99926.72
2023-03-17T08:25:58.607Z,99912.81
2023-03-17T08:28:29.207Z,99923.75
2023-03-17T08:31:12.084Z,99930.81
2023-03-17T08:33:43.848Z,99926.72
2023-03-17T08:36:12.848Z,99930.31
2023-03-17T08:38:43.849Z,99931.81
2023-03-17T08:41:15.207Z,99937.09
2023-03-17T08:46:44.945Z,99931.97
2023-03-17T08:49:14.059Z,99913.19
2023-03-17T08:51:42.118Z,99913.41
2023-03-17T08:54:11.132Z,99911.53
2023-03-17T08:56:40.951Z,99917.78
2023-03-17T08:59:10.465Z,99901.47
2023-03-17T09:01:40.230Z,99898.47
2023-03-17T09:04:15.455Z,99910.16
2023-03-17T09:07:01.352Z,99906.66
2023-03-17T09:09:32.102Z,99895.53
2023-03-17T09:12:00.589Z,99886.75
2023-03-17T09:14:31.718Z,99884.75
2023-03-17T09:17:04.042Z,99895.59
2023-03-17T09:19:39.061Z,99883.53
2023-03-17T09:22:07.742Z,99880.97
2023-03-17T09:24:36.669Z,99879.25
2023-03-17T09:27:04.851Z,99875.25
2023-03-17T09:29:33.948Z,99872.50
2023-03-17T09:32:04.190Z,99876.50
2023-03-17T09:34:33.051Z,99875.69
2023-03-17T09:37:02.847Z,99871.88
2023-03-17T09:39:31.322Z,99869.56
2023-03-17T09:42:19.697Z,99871.06
2023-03-17T09:45:13.567Z,99851.47
2023-03-17T09:48:14.459Z,99863.63
2023-03-17T09:50:48.786Z,99874.78
2023-03-17T09:53:21.827Z,99862.00
2023-03-17T09:55:56.217Z,99871.13
2023-03-17T09:58:32.002Z,99858.09
2023-03-17T10:01:01.422Z,99856.19
2023-03-17T10:03:29.632Z,99850.94
2023-03-17T10:06:13.408Z,99847.81
2023-03-17T10:08:52.182Z,99847.88
2023-03-17T10:11:33.175Z,99843.28
2023-03-17T10:14:04.565Z,99844.75
2023-03-17T10:16:41.676Z,99849.56
2023-03-17T10:19:17.618Z,99850.19
2023-03-17T10:21:52.978Z,99845.69
2023-03-17T10:24:24.446Z,99834.25
2023-03-17T10:26:54.506Z,99828.53
2023-03-17T10:29:24.189Z,99825.63
2023-03-17T10:31:56.273Z,99827.34
2023-03-17T10:34:29.858Z,99829.06
2023-03-17T10:37:05.546Z,99823.03
2023-03-17T10:39:46.180Z,99832.72
2023-03-17T10:42:22.747Z,99826.59
2023-03-17T10:44:55.006Z,99821.94
2023-03-17T10:47:31.805Z,99824.59
2023-03-17T10:50:05.588Z,99830.25
2023-03-17T10:52:41.015Z,99825.84
2023-03-17T10:55:15.837Z,99826.53
2023-03-17T10:57:53.254Z,99823.81
2023-03-17T11:00:23.350Z,99825.34
2023-03-17T11:02:57.430Z,99824.34
2023-03-17T11:05:27.674Z,99821.44
2023-03-17T11:07:59.909Z,99824.59
2023-03-17T11:10:30.587Z,99815.03
2023-03-17T11:13:01.910Z,99802.16
2023-03-17T11:15:34.935Z,99809.78
2023-03-17T11:18:06.017Z,99815.09
2023-03-17T11:20:47.532Z,99822.53
2023-03-17T11:23:31.721Z,99821.63
2023-03-17T11:26:14.906Z,99816.13
2023-03-17T11:28:48.729Z,99815.44
2023-03-17T11:31:27.556Z,99801.44
2023-03-17T11:34:04.499Z,99798.44
2023-03-17T11:36:46.092Z,99802.19
2023-03-17T11:39:17.842Z,99803.25
2023-03-17T11:41:55.079Z,99792.06
2023-03-17T11:44:43.363Z,99791.75
2023-03-17T11:47:23.567Z,99795.84
2023-03-17T11:50:04.754Z,99784.88
2023-03-17T11:52:41.345Z,99786.03
2023-03-17T11:55:21.760Z,99782.09
2023-03-17T11:57:57.092Z,99773.44
2023-03-17T12:00:30.044Z,99767.88
2023-03-17T12:03:09.752Z,99783.84
2023-03-17T12:05:39.653Z,99774.25
2023-03-17T12:08:16.383Z,99766.63
2023-03-17T12:10:49.533Z,99763.91
2023-03-17T12:13:25.925Z,99763.22
2023-03-17T12:15:58.870Z,99761.50
2023-03-17T12:18:32.999Z,99762.03
2023-03-17T12:21:10.933Z,99763.22
2023-03-17T12:23:45.573Z,99760.56
2023-03-17T12:26:16.413Z,99754.25
2023-03-17T12:28:52.398Z,99755.53
2023-03-17T12:31:23.927Z,99761.22
2023-03-17T12:34:00.567Z,99760.41
2023-03-17T12:36:29.241Z,99754.84
2023-03-17T12:39:01.971Z,99754.13
2023-03-17T12:41:49.052Z,99744.16
2023-03-17T12:44:33.088Z,99737.75
2023-03-17T12:47:18.323Z,99736.81
2023-03-17T12:50:14.479Z,99741.00
2023-03-17T12:53:05.093Z,99734.59
2023-03-17T12:55:36.137Z,99730.75
2023-03-17T12:58:07.741Z,99724.63
2023-03-17T13:00:50.709Z,99727.75
2023-03-17T13:03:25.695Z,99727.47
2023-03-17T13:06:07.587Z,99719.88
2023-03-17T13:08:38.131Z,99719.25
2023-03-17T13:11:18.084Z,99710.22
2023-03-17T13:13:56.165Z,99717.41
2023-03-17T13:16:33.229Z,99716.34
2023-03-17T13:19:32.708Z,99706.72
2023-03-17T13:22:34.351Z,99709.16
2023-03-17T13:25:15.724Z,99701.72
2023-03-17T13:27:46.540Z,99701.84
2023-03-17T13:30:44.544Z,99701.09
2023-03-17T13:33:24.303Z,99693.78
2023-03-17T13:36:08.065Z,99677.16
2023-03-17T13:39:15.070Z,99686.16
2023-03-17T13:42:17.987Z,99677.88
2023-03-17T13:47:46.148Z,99680.66
2023-03-17T13:50:17.576Z,99672.50
2023-03-17T13:52:49.891Z,99673.81
2023-03-17T13:55:38.707Z,99663.06
2023-03-17T13:58:35.342Z,99663.06
2023-03-17T14:01:09.078Z,99667.72
2023-03-17T14:03:44.962Z,99673.41
2023-03-17T14:06:17.102Z,99667.06
2023-03-17T14:08:49.037Z,99667.91
2023-03-17T14:11:24.090Z,99662.22
2023-03-17T14:14:09.833Z,99665.16
2023-03-17T14:16:45.609Z,99657.09
2023-03-17T14:19:21.072Z,99650.44
2023-03-17T14:21:50.322Z,99647.03
2023-03-17T14:24:22.375Z,99644.44
2023-03-17T14:26:54.221Z,99648.00
2023-03-17T14:29:27.861Z,99643.31
2023-03-17T14:32:04.797Z,99649.22
2023-03-17T14:34:34.790Z,99652.50
2023-03-17T14:37:04.382Z,99650.19
2023-03-17T14:39:32.662Z,99650.66
2023-03-17T14:42:02.883Z,99644.44
2023-03-17T14:44:37.792Z,99639.31
2023-03-17T14:47:13.043Z,99633.59
2023-03-17T14:49:42.623Z,99628.63
2023-03-17T14:52:20.171Z,99628.28
2023-03-17T14:54:53.902Z,99630.56
2023-03-17T14:57:27.283Z,99620.44
2023-03-17T15:00:00.359Z,99625.47
2023-03-17T15:02:35.393Z,99635.94
2023-03-17T15:05:12.887Z,99624.50
2023-03-17T15:07:43.186Z,99634.88
2023-03-17T15:10:17.066Z,99636.13
2023-03-17T15:12:48.773Z,99631.00
2023-03-17T15:15:25.926Z,99628.94
2023-03-17T15:17:58.466Z,99632.94
2023-03-17T15:20:31.071Z,99623.97
2023-03-17T15:23:20.924Z,99628.66
2023-03-17T15:25:55.675Z,99624.06
2023-03-17T15:28:29.123Z,99614.88
2023-03-17T15:31:12.115Z,99629.88
2023-03-17T15:33:42.661Z,99621.81
2023-03-17T15:36:33.525Z,99622.75
2023-03-17T15:39:03.651Z,99628.19
2023-03-17T15:41:32.103Z,99622.94
2023-03-17T15:44:00.277Z,99626.13
2023-03-17T15:46:32.280Z,99628.72
2023-03-17T15:49:01.229Z,99626.41
2023-03-17T15:51:31.075Z,99624.09
2023-03-17T15:53:59.359Z,99631.72
2023-03-17T15:56:27.855Z,99630.06
2023-03-17T15:58:56.057Z,99630.28
2023-03-17T16:01:35.954Z,99634.94
2023-03-17T16:04:07.225Z,99620.19
2023-03-17T16:06:37.532Z,99629.09
2023-03-17T16:09:07.900Z,99627.53
2023-03-17T16:11:36.381Z,99633.59
2023-03-17T16:14:04.872Z,99626.19
2023-03-17T16:16:38.272Z,99621.06
2023-03-17T16:19:10.292Z,99628.63
2023-03-17T16:21:45.534Z,99630.91
2023-03-17T16:24:19.906Z,99621.41
2023-03-17T16:26:56.235Z,99622.53
2023-03-17T16:29:24.741Z,99623.00
2023-03-17T16:31:57.159Z,99627.84
2023-03-17T16:34:30.695Z,99624.84
2023-03-17T16:37:03.554Z,99636.53
2023-03-17T16:39:32.405Z,99627.03
2023-03-17T16:42:02.387Z,99630.13
2023-03-17T16:44:36.734Z,99631.69
2023-03-17T16:47:09.304Z,99632.13
2023-03-17T16:49:55.118Z,99637.00
2023-03-17T16:52:33.731Z,99638.22
2023-03-17T16:55:13.485Z,99631.63
2023-03-17T16:57:51.538Z,99639.31
2023-03-17T17:00:28.221Z,99636.28
2023-03-17T17:03:19.605Z,99636.84
2023-03-17T17:05:55.044Z,99622.84
2023-03-17T17:08:25.032Z,99624.97
2023-03-17T17:10:53.408Z,99618.91
2023-03-17T17:13:22.320Z,99630.75
2023-03-17T17:15:57.796Z,99635.66
2023-03-17T17:18:31.761Z,99637.16
2023-03-17T17:21:04.892Z,99646.28
2023-03-17T17:23:36.585Z,99641.22
2023-03-17T17:26:09.720Z,99647.88
2023-03-17T17:28:49.344Z,99637.63
2023-03-17T17:31:20.812Z,99654.69
2023-03-17T17:33:50.072Z,99654.22
2023-03-17T17:36:20.522Z,99659.88
2023-03-17T17:38:51.763Z,99654.16
2023-03-17T17:41:23.329Z,99661.44
2023-03-17T17:43:56.256Z,99667.88
2023-03-17T17:46:28.597Z,99660.25
2023-03-17T17:49:00.334Z,99661.19
2023-03-17T17:51:33.844Z,99670.22
2023-03-17T17:54:07.027Z,99668.66
2023-03-17T17:56:46.830Z,99676.00
2023-03-17T17:59:19.264Z,99680.69
2023-03-17T18:01:53.211Z,99669.47
2023-03-17T18:04:21.717Z,99682.81
2023-03-17T18:06:50.243Z,99684.78
2023-03-17T18:09:22.497Z,99683.09
2023-03-17T18:12:00.191Z,99685.69
2023-03-17T18:14:29.419Z,99676.59
2023-03-17T18:17:00.697Z,99688.31
2023-03-17T18:19:28.902Z,99676.16
2023-03-17T18:21:57.837Z,99672.47
2023-03-17T18:24:27.977Z,99678.78
2023-03-17T18:26:59.009Z,99680.63
2023-03-17T18:29:27.702Z,99675.44
2023-03-17T18:31:56.589Z,99677.31
2023-03-17T18:34:29.578Z,99682.91
2023-03-17T18:37:02.624Z,99685.47
2023-03-17T18:39:34.097Z,99684.47
2023-03-17T18:42:02.683Z,99684.84
2023-03-17T18:44:36.422Z,99694.59
2023-03-17T18:48:45.635Z,99684.28
2023-03-17T18:51:13.938Z,99686.31
2023-03-17T18:53:42.590Z,99684.53
2023-03-17T18:56:16.100Z,99687.53
2023-03-17T18:58:44.412Z,99691.16
2023-03-17T19:01:13.672Z,99687.88
2023-03-17T19:03:48.931Z,99693.44
2023-03-17T19:06:19.766Z,99679.63
2023-03-17T19:08:51.094Z,99682.25
2023-03-17T19:11:21.804Z,99680.56
2023-03-17T19:13:50.348Z,99686.06
2023-03-17T19:16:18.780Z,99688.88
2023-03-17T19:18:48.544Z,99691.66
2023-03-17T19:21:16.642Z,99697.94
2023-03-17T19:23:44.977Z,99704.47
2023-03-17T19:26:13.242Z,99697.63
2023-03-17T19:28:41.622Z,99689.00
2023-03-17T19:31:12.373Z,99689.13
2023-03-17T19:33:41.008Z,99689.34
2023-03-17T19:36:13.095Z,99691.41
2023-03-17T19:38:43.656Z,99699.53
2023-03-17T19:41:11.779Z,99694.41
2023-03-17T19:43:41.740Z,99692.84
2023-03-17T19:46:11.642Z,99699.91
2023-03-17T19:48:40.952Z,99698.31
2023-03-17T19:51:11.566Z,99686.16
2023-03-17T19:53:39.725Z,99700.13
2023-03-17T19:56:08.744Z,99709.78
2023-03-17T19:58:37.688Z,99712.41
2023-03-17T20:01:08.477Z,99714.31
2023-03-17T20:03:39.498Z,99711.78
2023-03-17T20:06:07.639Z,99708.97
2023-03-17T20:08:38.061Z,99702.56
2023-03-17T20:11:07.019Z,99704.31
2023-03-17T20:13:38.286Z,99705.78
2023-03-17T20:16:08.103Z,99679.97
2023-03-17T20:18:36.960Z,99706.19
2023-03-17T20:21:07.796Z,99710.78
2023-03-17T20:23:38.408Z,99726.81
2023-03-17T20:26:09.466Z,99725.22
2023-03-17T20:28:38.842Z,99720.69
2023-03-17T20:31:08.145Z,99720.16
2023-03-17T20:33:36.976Z,99728.16
2023-03-17T20:36:06.235Z,99707.81
2023-03-17T20:38:37.168Z,99715.56
2023-03-17T20:41:08.832Z,99710.28
2023-03-17T20:43:38.259Z,99718.97
2023-03-17T20:46:08.813Z,99728.78
2023-03-17T20:48:38.233Z,99735.09
2023-03-17T20:51:07.073Z,99735.81
2023-03-17T20:53:39.120Z,99731.47
2023-03-17T20:56:09.251Z,99734.16
2023-03-17T20:58:37.616Z,99736.00
2023-03-17T21:01:06.020Z,99726.34
2023-03-17T21:03:34.460Z,99715.13
2023-03-17T21:06:05.363Z,99719.34
2023-03-17T21:08:33.863Z,99723.81
2023-03-17T21:11:09.221Z,99725.81
2023-03-17T21:13:38.864Z,99728.59
2023-03-17T21:16:07.535Z,99739.28
2023-03-17T21:18:36.282Z,99744.59
2023-03-17T21:21:04.898Z,99746.31
2023-03-17T21:23:33.196Z,99743.78
2023-03-17T21:26:01.824Z,99740.41
2023-03-17T21:28:32.316Z,99738.75
2023-03-17T21:31:01.971Z,99734.41
2023-03-17T21:33:30.545Z,99733.59
2023-03-17T21:35:59.450Z,99733.69
2023-03-17T21:38:29.608Z,99736.34
2023-03-17T21:40:58.862Z,99731.19
2023-03-17T21:43:28.608Z,99734.63
2023-03-17T21:46:03.887Z,99729.28
2023-03-17T21:48:32.006Z,99722.28
2023-03-17T21:51:00.124Z,99693.00
2023-03-17T21:53:33.251Z,99727.16
2023-03-17T21:56:02.056Z,99721.81
2023-03-17T21:58:30.266Z,99725.47
2023-03-17T22:01:01.526Z,99729.97
2023-03-17T22:03:32.253Z,99729.94
2023-03-17T22:06:00.869Z,99737.06
2023-03-17T22:08:29.708Z,99736.06
2023-03-17T22:10:58.307Z,99729.94
2023-03-17T22:13:31.076Z,99729.88
2023-03-17T22:15:59.431Z,99739.59
2023-03-17T22:18:28.246Z,99736.94
2023-03-17T22:20:58.936Z,99733.53
2023-03-17T22:23:27.769Z,99732.72
2023-03-17T22:25:56.573Z,99745.63
2023-03-17T22:28:25.334Z,99746.59
2023-03-17T22:30:54.545Z,99746.69
2023-03-17T22:33:22.757Z,99750.25
2023-03-17T22:35:51.103Z,99763.50
2023-03-17T22:38:21.916Z,99761.81
2023-03-17T22:41:01.884Z,99767.16
2023-03-17T22:43:30.708Z,99767.22
2023-03-17T22:45:58.951Z,99776.09
2023-03-17T22:48:27.897Z,99775.25
2023-03-17T22:51:03.147Z,99777.81
2023-03-17T22:53:32.942Z,99782.22
2023-03-17T22:56:01.638Z,99778.66
2023-03-17T22:58:29.847Z,99777.78
2023-03-17T23:01:00.253Z,99780.31
2023-03-17T23:03:28.872Z,99780.44
2023-03-17T23:06:02.005Z,99792.00
2023-03-17T23:08:35.420Z,99790.34
2023-03-17T23:11:06.440Z,99767.06
2023-03-17T23:13:36.819Z,99778.47
2023-03-17T23:16:06.728Z,99794.09
2023-03-17T23:18:35.458Z,99794.09
2023-03-17T23:21:05.337Z,99792.31
2023-03-17T23:23:35.608Z,99802.09
2023-03-17T23:26:06.912Z,99808.28
2023-03-17T23:28:35.050Z,99806.50
2023-03-17T23:31:03.894Z,99811.75
2023-03-17T23:33:34.926Z,99814.31
2023-03-17T23:36:03.669Z,99824.97
2023-03-17T23:38:32.481Z,99825.75
2023-03-17T23:41:04.950Z,99831.09
2023-03-17T23:43:34.112Z,99844.41
2023-03-17T23:46:04.351Z,99847.16
2023-03-17T23:49:46.156Z,99845.50
2023-03-17T23:52:15.551Z,99843.91
2023-03-17T23:54:44.082Z,99847.56
2023-03-17T23:57:16.018Z,99845.69
2023-03-17T23:59:44.291Z,99839.31
